sensor_id;sensor_type;location;lat;lon;timestamp;P1;durP1;ratioP1;P2;durP2;ratioP2
7029;SDS011;3556;53.500;10.176;2022-08-20T00:00:42;27.70;;;24.90;;
7029;SDS011;3556;53.500;10.176;2022-08-20T00:03:15;25.60;;;22.80;;
7029;SDS011;3556;53.500;10.176;2022-08-20T00:05:45;24.00;;;21.50;;
7029;SDS011;3556;53.500;10.176;2022-08-20T00:08:18;24.00;;;21.40;;
7029;SDS011;3556;53.500;10.176;2022-08-20T00:10:45;26.17;;;23.40;;
7029;SDS011;3556;53.500;10.176;2022-08-20T00:13:13;23.90;;;21.40;;
7029;SDS011;3556;53.500;10.176;2022-08-20T00:15:42;22.63;;;20.47;;
7029;SDS011;3556;53.500;10.176;2022-08-20T00:18:08;24.60;;;22.07;;
7029;SDS011;3556;53.500;10.176;2022-08-20T00:20:36;29.57;;;25.50;;
7029;SDS011;3556;53.500;10.176;2022-08-20T00:23:05;26.20;;;23.20;;
7029;SDS011;3556;53.500;10.176;2022-08-20T00:25:30;27.97;;;23.77;;
7029;SDS011;3556;53.500;10.176;2022-08-20T00:27:56;24.73;;;22.20;;
7029;SDS011;3556;53.500;10.176;2022-08-20T00:30:23;26.10;;;22.70;;
7029;SDS011;3556;53.500;10.176;2022-08-20T00:33:00;28.70;;;22.33;;
7029;SDS011;3556;53.500;10.176;2022-08-20T00:35:29;35.03;;;25.73;;
7029;SDS011;3556;53.500;10.176;2022-08-20T00:37:56;25.50;;;22.00;;
7029;SDS011;3556;53.500;10.176;2022-08-20T00:40:23;29.53;;;25.07;;
7029;SDS011;3556;53.500;10.176;2022-08-20T00:42:55;26.53;;;23.80;;
7029;SDS011;3556;53.500;10.176;2022-08-20T00:45:24;28.50;;;23.10;;
7029;SDS011;3556;53.500;10.176;2022-08-20T00:47:54;33.83;;;27.17;;
7029;SDS011;3556;53.500;10.176;2022-08-20T00:50:22;28.93;;;24.80;;
7029;SDS011;3556;53.500;10.176;2022-08-20T00:52:51;27.13;;;24.10;;
7029;SDS011;3556;53.500;10.176;2022-08-20T00:55:19;26.03;;;22.57;;
7029;SDS011;3556;53.500;10.176;2022-08-20T00:57:49;30.80;;;23.80;;
7029;SDS011;3556;53.500;10.176;2022-08-20T01:00:20;27.50;;;24.03;;
7029;SDS011;3556;53.500;10.176;2022-08-20T01:03:07;31.70;;;25.37;;
7029;SDS011;3556;53.500;10.176;2022-08-20T01:05:36;24.90;;;22.37;;
7029;SDS011;3556;53.500;10.176;2022-08-20T01:08:03;24.93;;;20.03;;
7029;SDS011;3556;53.500;10.176;2022-08-20T01:10:32;23.47;;;21.00;;
7029;SDS011;3556;53.500;10.176;2022-08-20T01:13:00;26.37;;;22.20;;
7029;SDS011;3556;53.500;10.176;2022-08-20T01:15:34;23.63;;;21.13;;
7029;SDS011;3556;53.500;10.176;2022-08-20T01:18:02;24.23;;;21.70;;
7029;SDS011;3556;53.500;10.176;2022-08-20T01:20:31;24.73;;;22.13;;
7029;SDS011;3556;53.500;10.176;2022-08-20T01:29:07;24.30;;;21.83;;
7029;SDS011;3556;53.500;10.176;2022-08-20T01:31:39;27.13;;;24.30;;
7029;SDS011;3556;53.500;10.176;2022-08-20T01:34:06;28.10;;;22.40;;
7029;SDS011;3556;53.500;10.176;2022-08-20T01:39:06;31.80;;;25.30;;
7029;SDS011;3556;53.500;10.176;2022-08-20T01:41:42;32.47;;;27.47;;
7029;SDS011;3556;53.500;10.176;2022-08-20T01:44:13;39.37;;;27.60;;
7029;SDS011;3556;53.500;10.176;2022-08-20T01:46:40;31.20;;;25.10;;
7029;SDS011;3556;53.500;10.176;2022-08-20T01:49:29;33.97;;;24.57;;
7029;SDS011;3556;53.500;10.176;2022-08-20T01:51:55;31.77;;;25.47;;
7029;SDS011;3556;53.500;10.176;2022-08-20T01:54:25;32.97;;;27.40;;
7029;SDS011;3556;53.500;10.176;2022-08-20T01:59:22;32.53;;;26.97;;
7029;SDS011;3556;53.500;10.176;2022-08-20T02:01:47;29.03;;;25.27;;
7029;SDS011;3556;53.500;10.176;2022-08-20T02:04:14;29.70;;;24.10;;
7029;SDS011;3556;53.500;10.176;2022-08-20T02:06:42;22.77;;;20.40;;
7029;SDS011;3556;53.500;10.176;2022-08-20T02:09:11;22.07;;;17.83;;
7029;SDS011;3556;53.500;10.176;2022-08-20T02:11:37;19.73;;;17.87;;
7029;SDS011;3556;53.500;10.176;2022-08-20T02:14:05;19.13;;;17.10;;
7029;SDS011;3556;53.500;10.176;2022-08-20T02:16:34;18.63;;;15.70;;
7029;SDS011;3556;53.500;10.176;2022-08-20T02:19:03;18.00;;;16.07;;
7029;SDS011;3556;53.500;10.176;2022-08-20T02:21:49;15.80;;;14.30;;
7029;SDS011;3556;53.500;10.176;2022-08-20T02:24:17;17.20;;;15.40;;
7029;SDS011;3556;53.500;10.176;2022-08-20T02:26:44;16.43;;;15.03;;
7029;SDS011;3556;53.500;10.176;2022-08-20T02:29:10;17.87;;;16.07;;
7029;SDS011;3556;53.500;10.176;2022-08-20T02:31:39;17.60;;;15.97;;
7029;SDS011;3556;53.500;10.176;2022-08-20T02:34:06;17.63;;;15.97;;
7029;SDS011;3556;53.500;10.176;2022-08-20T02:36:34;16.83;;;15.33;;
7029;SDS011;3556;53.500;10.176;2022-08-20T02:39:02;16.37;;;14.80;;
7029;SDS011;3556;53.500;10.176;2022-08-20T02:41:30;17.23;;;15.60;;
7029;SDS011;3556;53.500;10.176;2022-08-20T02:43:55;16.80;;;15.23;;
7029;SDS011;3556;53.500;10.176;2022-08-20T02:46:21;16.20;;;14.90;;
7029;SDS011;3556;53.500;10.176;2022-08-20T02:48:47;17.37;;;15.77;;
7029;SDS011;3556;53.500;10.176;2022-08-20T02:51:12;18.70;;;15.73;;
7029;SDS011;3556;53.500;10.176;2022-08-20T02:53:40;15.90;;;14.23;;
7029;SDS011;3556;53.500;10.176;2022-08-20T02:56:07;15.70;;;14.30;;
7029;SDS011;3556;53.500;10.176;2022-08-20T02:58:35;16.27;;;14.80;;
7029;SDS011;3556;53.500;10.176;2022-08-20T03:01:03;15.17;;;13.67;;
7029;SDS011;3556;53.500;10.176;2022-08-20T03:03:30;15.10;;;13.57;;
7029;SDS011;3556;53.500;10.176;2022-08-20T03:05:56;16.00;;;13.13;;
7029;SDS011;3556;53.500;10.176;2022-08-20T03:08:23;15.00;;;13.50;;
7029;SDS011;3556;53.500;10.176;2022-08-20T03:10:50;14.93;;;13.40;;
7029;SDS011;3556;53.500;10.176;2022-08-20T03:13:16;14.73;;;13.37;;
7029;SDS011;3556;53.500;10.176;2022-08-20T03:15:46;14.43;;;12.80;;
7029;SDS011;3556;53.500;10.176;2022-08-20T03:18:15;13.60;;;12.23;;
7029;SDS011;3556;53.500;10.176;2022-08-20T03:20:43;14.00;;;12.50;;
7029;SDS011;3556;53.500;10.176;2022-08-20T03:23:09;14.00;;;12.70;;
7029;SDS011;3556;53.500;10.176;2022-08-20T03:25:35;12.73;;;11.73;;
7029;SDS011;3556;53.500;10.176;2022-08-20T03:28:00;13.40;;;12.00;;
7029;SDS011;3556;53.500;10.176;2022-08-20T03:30:26;13.43;;;12.03;;
7029;SDS011;3556;53.500;10.176;2022-08-20T03:32:53;12.50;;;11.53;;
7029;SDS011;3556;53.500;10.176;2022-08-20T03:35:21;13.27;;;12.07;;
7029;SDS011;3556;53.500;10.176;2022-08-20T03:37:49;12.70;;;11.40;;
7029;SDS011;3556;53.500;10.176;2022-08-20T03:40:17;11.90;;;11.00;;
7029;SDS011;3556;53.500;10.176;2022-08-20T03:42:45;12.00;;;11.10;;
7029;SDS011;3556;53.500;10.176;2022-08-20T03:45:11;14.70;;;11.90;;
7029;SDS011;3556;53.500;10.176;2022-08-20T03:47:39;12.70;;;11.50;;
7029;SDS011;3556;53.500;10.176;2022-08-20T03:50:06;11.53;;;10.70;;
7029;SDS011;3556;53.500;10.176;2022-08-20T03:52:33;13.40;;;12.07;;
7029;SDS011;3556;53.500;10.176;2022-08-20T03:54:59;13.43;;;12.03;;
7029;SDS011;3556;53.500;10.176;2022-08-20T03:57:25;14.43;;;12.93;;
7029;SDS011;3556;53.500;10.176;2022-08-20T03:59:52;12.47;;;10.63;;
7029;SDS011;3556;53.500;10.176;2022-08-20T04:02:18;12.13;;;10.80;;
7029;SDS011;3556;53.500;10.176;2022-08-20T04:04:44;12.83;;;11.53;;
7029;SDS011;3556;53.500;10.176;2022-08-20T04:07:14;11.90;;;10.70;;
7029;SDS011;3556;53.500;10.176;2022-08-20T04:09:44;11.47;;;10.57;;
7029;SDS011;3556;53.500;10.176;2022-08-20T04:12:10;12.20;;;11.00;;
7029;SDS011;3556;53.500;10.176;2022-08-20T04:14:38;11.03;;;10.03;;
7029;SDS011;3556;53.500;10.176;2022-08-20T04:17:05;11.83;;;10.70;;
7029;SDS011;3556;53.500;10.176;2022-08-20T04:19:32;11.13;;;9.87;;
7029;SDS011;3556;53.500;10.176;2022-08-20T04:21:58;12.43;;;10.00;;
7029;SDS011;3556;53.500;10.176;2022-08-20T04:24:24;10.80;;;10.00;;
7029;SDS011;3556;53.500;10.176;2022-08-20T04:26:51;10.47;;;9.57;;
7029;SDS011;3556;53.500;10.176;2022-08-20T04:29:17;10.73;;;9.83;;
7029;SDS011;3556;53.500;10.176;2022-08-20T04:31:43;10.30;;;9.40;;
7029;SDS011;3556;53.500;10.176;2022-08-20T04:34:08;11.93;;;10.80;;
7029;SDS011;3556;53.500;10.176;2022-08-20T04:36:34;9.63;;;9.00;;
7029;SDS011;3556;53.500;10.176;2022-08-20T04:39:00;11.63;;;10.47;;
7029;SDS011;3556;53.500;10.176;2022-08-20T04:41:26;10.30;;;9.53;;
7029;SDS011;3556;53.500;10.176;2022-08-20T04:43:52;10.90;;;9.90;;
7029;SDS011;3556;53.500;10.176;2022-08-20T04:46:20;9.70;;;8.80;;
7029;SDS011;3556;53.500;10.176;2022-08-20T04:48:47;9.97;;;9.20;;
7029;SDS011;3556;53.500;10.176;2022-08-20T04:51:13;9.80;;;9.20;;
7029;SDS011;3556;53.500;10.176;2022-08-20T04:53:41;10.10;;;9.40;;
7029;SDS011;3556;53.500;10.176;2022-08-20T04:56:07;13.73;;;9.50;;
7029;SDS011;3556;53.500;10.176;2022-08-20T04:58:34;10.07;;;9.20;;
7029;SDS011;3556;53.500;10.176;2022-08-20T05:01:05;10.23;;;9.50;;
7029;SDS011;3556;53.500;10.176;2022-08-20T05:03:33;9.87;;;9.00;;
7029;SDS011;3556;53.500;10.176;2022-08-20T05:06:02;10.33;;;9.43;;
7029;SDS011;3556;53.500;10.176;2022-08-20T05:08:28;10.83;;;9.97;;
7029;SDS011;3556;53.500;10.176;2022-08-20T05:10:54;9.77;;;9.07;;
7029;SDS011;3556;53.500;10.176;2022-08-20T05:13:21;11.07;;;10.27;;
7029;SDS011;3556;53.500;10.176;2022-08-20T05:15:47;9.87;;;9.17;;
7029;SDS011;3556;53.500;10.176;2022-08-20T05:18:15;10.93;;;10.13;;
7029;SDS011;3556;53.500;10.176;2022-08-20T05:20:43;10.57;;;9.67;;
7029;SDS011;3556;53.500;10.176;2022-08-20T05:23:11;10.73;;;9.90;;
7029;SDS011;3556;53.500;10.176;2022-08-20T05:25:38;10.80;;;9.40;;
7029;SDS011;3556;53.500;10.176;2022-08-20T05:28:07;11.70;;;10.47;;
7029;SDS011;3556;53.500;10.176;2022-08-20T05:30:37;11.37;;;10.43;;
7029;SDS011;3556;53.500;10.176;2022-08-20T05:33:05;11.70;;;10.60;;
7029;SDS011;3556;53.500;10.176;2022-08-20T05:35:32;11.37;;;10.60;;
7029;SDS011;3556;53.500;10.176;2022-08-20T05:38:00;11.73;;;10.73;;
7029;SDS011;3556;53.500;10.176;2022-08-20T05:40:26;12.13;;;10.23;;
7029;SDS011;3556;53.500;10.176;2022-08-20T05:42:52;12.17;;;10.97;;
7029;SDS011;3556;53.500;10.176;2022-08-20T05:45:19;12.97;;;10.60;;
7029;SDS011;3556;53.500;10.176;2022-08-20T05:47:45;13.53;;;12.17;;
7029;SDS011;3556;53.500;10.176;2022-08-20T05:50:12;13.67;;;11.57;;
7029;SDS011;3556;53.500;10.176;2022-08-20T05:52:39;12.87;;;11.67;;
7029;SDS011;3556;53.500;10.176;2022-08-20T05:55:06;13.00;;;11.80;;
7029;SDS011;3556;53.500;10.176;2022-08-20T05:57:33;13.80;;;11.53;;
7029;SDS011;3556;53.500;10.176;2022-08-20T06:00:00;16.23;;;12.00;;
7029;SDS011;3556;53.500;10.176;2022-08-20T06:02:27;13.03;;;11.70;;
7029;SDS011;3556;53.500;10.176;2022-08-20T06:05:11;21.83;;;15.07;;
7029;SDS011;3556;53.500;10.176;2022-08-20T06:07:37;16.80;;;14.90;;
7029;SDS011;3556;53.500;10.176;2022-08-20T06:10:03;19.90;;;15.47;;
7029;SDS011;3556;53.500;10.176;2022-08-20T06:12:30;27.10;;;16.00;;
7029;SDS011;3556;53.500;10.176;2022-08-20T06:14:56;21.83;;;16.30;;
7029;SDS011;3556;53.500;10.176;2022-08-20T06:17:22;22.10;;;16.50;;
7029;SDS011;3556;53.500;10.176;2022-08-20T06:19:48;23.17;;;16.90;;
7029;SDS011;3556;53.500;10.176;2022-08-20T06:22:14;30.97;;;18.07;;
7029;SDS011;3556;53.500;10.176;2022-08-20T06:24:40;26.77;;;18.00;;
7029;SDS011;3556;53.500;10.176;2022-08-20T06:27:06;27.10;;;17.50;;
7029;SDS011;3556;53.500;10.176;2022-08-20T06:29:32;26.33;;;17.30;;
7029;SDS011;3556;53.500;10.176;2022-08-20T06:31:57;28.73;;;15.93;;
7029;SDS011;3556;53.500;10.176;2022-08-20T06:34:23;25.77;;;16.60;;
7029;SDS011;3556;53.500;10.176;2022-08-20T06:36:52;30.63;;;17.60;;
7029;SDS011;3556;53.500;10.176;2022-08-20T06:39:18;22.73;;;16.87;;
7029;SDS011;3556;53.500;10.176;2022-08-20T06:41:44;24.50;;;15.90;;
7029;SDS011;3556;53.500;10.176;2022-08-20T06:44:09;21.07;;;16.40;;
7029;SDS011;3556;53.500;10.176;2022-08-20T06:46:36;21.90;;;14.90;;
7029;SDS011;3556;53.500;10.176;2022-08-20T06:49:02;17.27;;;15.20;;
7029;SDS011;3556;53.500;10.176;2022-08-20T06:51:30;16.27;;;14.47;;
7029;SDS011;3556;53.500;10.176;2022-08-20T06:53:56;23.83;;;16.30;;
7029;SDS011;3556;53.500;10.176;2022-08-20T06:56:22;15.83;;;14.23;;
7029;SDS011;3556;53.500;10.176;2022-08-20T06:58:48;21.57;;;14.33;;
7029;SDS011;3556;53.500;10.176;2022-08-20T07:01:13;17.37;;;13.73;;
7029;SDS011;3556;53.500;10.176;2022-08-20T07:03:43;14.13;;;12.83;;
7029;SDS011;3556;53.500;10.176;2022-08-20T07:06:09;17.03;;;14.03;;
7029;SDS011;3556;53.500;10.176;2022-08-20T07:08:35;13.70;;;12.60;;
7029;SDS011;3556;53.500;10.176;2022-08-20T07:11:00;16.30;;;13.03;;
7029;SDS011;3556;53.500;10.176;2022-08-20T07:13:27;13.90;;;11.90;;
7029;SDS011;3556;53.500;10.176;2022-08-20T07:15:53;15.23;;;13.63;;
7029;SDS011;3556;53.500;10.176;2022-08-20T07:18:20;14.53;;;13.10;;
7029;SDS011;3556;53.500;10.176;2022-08-20T07:20:46;15.30;;;13.70;;
7029;SDS011;3556;53.500;10.176;2022-08-20T07:23:12;17.17;;;13.30;;
7029;SDS011;3556;53.500;10.176;2022-08-20T07:25:39;13.53;;;12.33;;
7029;SDS011;3556;53.500;10.176;2022-08-20T07:28:11;13.53;;;12.30;;
7029;SDS011;3556;53.500;10.176;2022-08-20T07:30:39;16.13;;;13.70;;
7029;SDS011;3556;53.500;10.176;2022-08-20T07:33:25;13.30;;;12.10;;
7029;SDS011;3556;53.500;10.176;2022-08-20T07:35:52;14.43;;;11.40;;
7029;SDS011;3556;53.500;10.176;2022-08-20T07:38:20;19.73;;;12.20;;
7029;SDS011;3556;53.500;10.176;2022-08-20T07:40:49;12.97;;;11.30;;
7029;SDS011;3556;53.500;10.176;2022-08-20T07:43:16;11.43;;;10.23;;
7029;SDS011;3556;53.500;10.176;2022-08-20T07:45:42;12.53;;;10.27;;
7029;SDS011;3556;53.500;10.176;2022-08-20T07:48:08;11.90;;;10.60;;
7029;SDS011;3556;53.500;10.176;2022-08-20T07:50:36;11.87;;;10.77;;
7029;SDS011;3556;53.500;10.176;2022-08-20T07:53:02;11.80;;;10.50;;
7029;SDS011;3556;53.500;10.176;2022-08-20T07:55:27;11.00;;;9.90;;
7029;SDS011;3556;53.500;10.176;2022-08-20T07:57:54;10.87;;;9.90;;
7029;SDS011;3556;53.500;10.176;2022-08-20T08:00:24;10.33;;;9.30;;
7029;SDS011;3556;53.500;10.176;2022-08-20T08:02:50;8.60;;;7.90;;
7029;SDS011;3556;53.500;10.176;2022-08-20T08:05:16;7.63;;;7.23;;
7029;SDS011;3556;53.500;10.176;2022-08-20T08:07:42;7.57;;;6.83;;
7029;SDS011;3556;53.500;10.176;2022-08-20T08:10:11;6.83;;;6.23;;
7029;SDS011;3556;53.500;10.176;2022-08-20T08:12:43;6.10;;;5.60;;
7029;SDS011;3556;53.500;10.176;2022-08-20T08:15:14;7.33;;;5.73;;
7029;SDS011;3556;53.500;10.176;2022-08-20T08:17:46;6.00;;;5.60;;
7029;SDS011;3556;53.500;10.176;2022-08-20T08:20:14;5.13;;;4.73;;
7029;SDS011;3556;53.500;10.176;2022-08-20T08:22:41;5.17;;;4.83;;
7029;SDS011;3556;53.500;10.176;2022-08-20T08:25:11;4.67;;;4.47;;
7029;SDS011;3556;53.500;10.176;2022-08-20T08:27:38;5.00;;;4.60;;
7029;SDS011;3556;53.500;10.176;2022-08-20T08:30:04;5.00;;;4.67;;
7029;SDS011;3556;53.500;10.176;2022-08-20T08:32:30;4.30;;;4.20;;
7029;SDS011;3556;53.500;10.176;2022-08-20T08:34:57;4.37;;;4.17;;
7029;SDS011;3556;53.500;10.176;2022-08-20T08:37:27;4.37;;;3.70;;
7029;SDS011;3556;53.500;10.176;2022-08-20T08:39:52;4.37;;;4.03;;
7029;SDS011;3556;53.500;10.176;2022-08-20T08:42:32;3.57;;;3.43;;
7029;SDS011;3556;53.500;10.176;2022-08-20T08:45:08;3.97;;;3.77;;
7029;SDS011;3556;53.500;10.176;2022-08-20T08:47:36;3.60;;;3.43;;
7029;SDS011;3556;53.500;10.176;2022-08-20T08:50:05;3.80;;;3.60;;
7029;SDS011;3556;53.500;10.176;2022-08-20T08:52:34;4.70;;;4.17;;
7029;SDS011;3556;53.500;10.176;2022-08-20T08:55:06;5.07;;;3.80;;
7029;SDS011;3556;53.500;10.176;2022-08-20T08:57:39;8.50;;;4.10;;
7029;SDS011;3556;53.500;10.176;2022-08-20T09:00:10;4.03;;;3.60;;
7029;SDS011;3556;53.500;10.176;2022-08-20T09:02:39;3.67;;;3.47;;
7029;SDS011;3556;53.500;10.176;2022-08-20T09:05:16;4.13;;;3.43;;
7029;SDS011;3556;53.500;10.176;2022-08-20T09:07:47;3.37;;;3.17;;
7029;SDS011;3556;53.500;10.176;2022-08-20T09:10:15;3.97;;;3.30;;
7029;SDS011;3556;53.500;10.176;2022-08-20T09:12:41;3.30;;;3.20;;
7029;SDS011;3556;53.500;10.176;2022-08-20T09:15:08;3.93;;;3.67;;
7029;SDS011;3556;53.500;10.176;2022-08-20T09:17:34;3.43;;;3.13;;
7029;SDS011;3556;53.500;10.176;2022-08-20T09:20:00;3.03;;;2.93;;
7029;SDS011;3556;53.500;10.176;2022-08-20T09:22:26;3.90;;;3.60;;
7029;SDS011;3556;53.500;10.176;2022-08-20T09:24:52;4.10;;;3.50;;
7029;SDS011;3556;53.500;10.176;2022-08-20T09:27:18;3.90;;;3.60;;
7029;SDS011;3556;53.500;10.176;2022-08-20T09:29:44;4.33;;;3.53;;
7029;SDS011;3556;53.500;10.176;2022-08-20T09:34:46;3.10;;;2.90;;
7029;SDS011;3556;53.500;10.176;2022-08-20T09:37:15;2.80;;;2.70;;
7029;SDS011;3556;53.500;10.176;2022-08-20T09:39:41;3.23;;;2.60;;
7029;SDS011;3556;53.500;10.176;2022-08-20T09:42:15;3.30;;;3.00;;
7029;SDS011;3556;53.500;10.176;2022-08-20T09:44:45;4.20;;;3.13;;
7029;SDS011;3556;53.500;10.176;2022-08-20T09:47:11;2.60;;;2.50;;
7029;SDS011;3556;53.500;10.176;2022-08-20T09:49:38;6.10;;;2.87;;
7029;SDS011;3556;53.500;10.176;2022-08-20T09:52:05;2.80;;;2.70;;
7029;SDS011;3556;53.500;10.176;2022-08-20T09:54:34;2.77;;;2.63;;
7029;SDS011;3556;53.500;10.176;2022-08-20T09:57:03;2.90;;;2.70;;
7029;SDS011;3556;53.500;10.176;2022-08-20T09:59:31;3.00;;;2.90;;
7029;SDS011;3556;53.500;10.176;2022-08-20T10:01:58;3.80;;;2.97;;
7029;SDS011;3556;53.500;10.176;2022-08-20T10:04:24;2.93;;;2.40;;
7029;SDS011;3556;53.500;10.176;2022-08-20T10:06:50;3.30;;;3.03;;
7029;SDS011;3556;53.500;10.176;2022-08-20T10:09:16;2.70;;;2.60;;
7029;SDS011;3556;53.500;10.176;2022-08-20T10:11:42;3.20;;;3.00;;
7029;SDS011;3556;53.500;10.176;2022-08-20T10:14:07;8.10;;;3.53;;
7029;SDS011;3556;53.500;10.176;2022-08-20T10:16:33;3.87;;;3.47;;
7029;SDS011;3556;53.500;10.176;2022-08-20T10:19:00;3.87;;;2.80;;
7029;SDS011;3556;53.500;10.176;2022-08-20T10:21:26;7.07;;;3.07;;
7029;SDS011;3556;53.500;10.176;2022-08-20T10:23:53;3.40;;;3.27;;
7029;SDS011;3556;53.500;10.176;2022-08-20T10:26:19;4.43;;;2.90;;
7029;SDS011;3556;53.500;10.176;2022-08-20T10:28:44;2.63;;;2.50;;
7029;SDS011;3556;53.500;10.176;2022-08-20T10:31:10;6.27;;;2.60;;
7029;SDS011;3556;53.500;10.176;2022-08-20T10:33:37;3.87;;;2.77;;
7029;SDS011;3556;53.500;10.176;2022-08-20T10:38:34;6.23;;;3.40;;
7029;SDS011;3556;53.500;10.176;2022-08-20T10:41:00;6.13;;;3.10;;
7029;SDS011;3556;53.500;10.176;2022-08-20T10:43:26;3.67;;;2.90;;
7029;SDS011;3556;53.500;10.176;2022-08-20T10:45:52;4.50;;;2.90;;
7029;SDS011;3556;53.500;10.176;2022-08-20T10:48:18;3.43;;;2.67;;
7029;SDS011;3556;53.500;10.176;2022-08-20T10:50:44;6.33;;;3.13;;
7029;SDS011;3556;53.500;10.176;2022-08-20T10:53:09;5.53;;;3.10;;
7029;SDS011;3556;53.500;10.176;2022-08-20T10:55:35;5.60;;;2.97;;
7029;SDS011;3556;53.500;10.176;2022-08-20T10:58:03;5.00;;;2.93;;
7029;SDS011;3556;53.500;10.176;2022-08-20T11:00:30;5.27;;;3.03;;
7029;SDS011;3556;53.500;10.176;2022-08-20T11:02:56;5.33;;;3.20;;
7029;SDS011;3556;53.500;10.176;2022-08-20T11:05:21;7.53;;;2.70;;
7029;SDS011;3556;53.500;10.176;2022-08-20T11:07:47;3.13;;;2.90;;
7029;SDS011;3556;53.500;10.176;2022-08-20T11:10:14;3.33;;;3.00;;
7029;SDS011;3556;53.500;10.176;2022-08-20T11:12:40;4.70;;;3.00;;
7029;SDS011;3556;53.500;10.176;2022-08-20T11:15:06;8.40;;;2.93;;
7029;SDS011;3556;53.500;10.176;2022-08-20T11:17:33;2.90;;;2.37;;
7029;SDS011;3556;53.500;10.176;2022-08-20T11:20:00;3.93;;;2.63;;
7029;SDS011;3556;53.500;10.176;2022-08-20T11:22:27;5.73;;;2.80;;
7029;SDS011;3556;53.500;10.176;2022-08-20T11:24:53;3.67;;;2.70;;
7029;SDS011;3556;53.500;10.176;2022-08-20T11:27:23;7.17;;;2.97;;
7029;SDS011;3556;53.500;10.176;2022-08-20T11:29:54;3.00;;;2.50;;
7029;SDS011;3556;53.500;10.176;2022-08-20T11:32:22;2.83;;;2.47;;
7029;SDS011;3556;53.500;10.176;2022-08-20T11:34:48;2.83;;;2.63;;
7029;SDS011;3556;53.500;10.176;2022-08-20T11:37:15;4.33;;;2.40;;
7029;SDS011;3556;53.500;10.176;2022-08-20T11:39:43;5.30;;;2.73;;
7029;SDS011;3556;53.500;10.176;2022-08-20T11:42:09;12.13;;;3.20;;
7029;SDS011;3556;53.500;10.176;2022-08-20T11:44:35;4.23;;;2.57;;
7029;SDS011;3556;53.500;10.176;2022-08-20T11:47:01;2.60;;;2.40;;
7029;SDS011;3556;53.500;10.176;2022-08-20T11:49:29;6.40;;;3.20;;
7029;SDS011;3556;53.500;10.176;2022-08-20T11:51:55;6.10;;;2.50;;
7029;SDS011;3556;53.500;10.176;2022-08-20T11:54:21;4.27;;;2.57;;
7029;SDS011;3556;53.500;10.176;2022-08-20T11:56:46;4.10;;;2.70;;
7029;SDS011;3556;53.500;10.176;2022-08-20T11:59:13;3.70;;;1.97;;
7029;SDS011;3556;53.500;10.176;2022-08-20T12:01:42;5.67;;;2.53;;
7029;SDS011;3556;53.500;10.176;2022-08-20T12:04:07;5.73;;;2.50;;
7029;SDS011;3556;53.500;10.176;2022-08-20T12:06:33;7.70;;;2.50;;
7029;SDS011;3556;53.500;10.176;2022-08-20T12:08:59;3.30;;;2.50;;
7029;SDS011;3556;53.500;10.176;2022-08-20T12:11:24;6.03;;;2.73;;
7029;SDS011;3556;53.500;10.176;2022-08-20T12:13:50;9.20;;;3.10;;
7029;SDS011;3556;53.500;10.176;2022-08-20T12:16:16;4.97;;;2.50;;
7029;SDS011;3556;53.500;10.176;2022-08-20T12:18:43;5.30;;;2.47;;
7029;SDS011;3556;53.500;10.176;2022-08-20T12:21:09;2.43;;;2.13;;
7029;SDS011;3556;53.500;10.176;2022-08-20T12:23:34;6.63;;;2.80;;
7029;SDS011;3556;53.500;10.176;2022-08-20T12:26:00;8.57;;;2.17;;
7029;SDS011;3556;53.500;10.176;2022-08-20T12:28:28;2.83;;;2.60;;
7029;SDS011;3556;53.500;10.176;2022-08-20T12:30:54;9.67;;;2.87;;
7029;SDS011;3556;53.500;10.176;2022-08-20T12:33:20;6.03;;;2.23;;
7029;SDS011;3556;53.500;10.176;2022-08-20T12:35:49;2.70;;;2.17;;
7029;SDS011;3556;53.500;10.176;2022-08-20T12:38:15;4.87;;;2.40;;
7029;SDS011;3556;53.500;10.176;2022-08-20T12:40:40;3.30;;;2.30;;
7029;SDS011;3556;53.500;10.176;2022-08-20T12:43:06;10.23;;;2.20;;
7029;SDS011;3556;53.500;10.176;2022-08-20T12:45:33;5.57;;;2.77;;
7029;SDS011;3556;53.500;10.176;2022-08-20T12:48:00;4.93;;;2.70;;
7029;SDS011;3556;53.500;10.176;2022-08-20T12:50:27;3.53;;;2.00;;
7029;SDS011;3556;53.500;10.176;2022-08-20T12:52:53;2.20;;;1.83;;
7029;SDS011;3556;53.500;10.176;2022-08-20T12:55:19;2.80;;;1.93;;
7029;SDS011;3556;53.500;10.176;2022-08-20T12:57:49;2.00;;;1.80;;
7029;SDS011;3556;53.500;10.176;2022-08-20T13:00:18;4.90;;;2.10;;
7029;SDS011;3556;53.500;10.176;2022-08-20T13:02:47;4.93;;;2.10;;
7029;SDS011;3556;53.500;10.176;2022-08-20T13:05:13;2.50;;;1.87;;
7029;SDS011;3556;53.500;10.176;2022-08-20T13:07:41;2.63;;;1.77;;
7029;SDS011;3556;53.500;10.176;2022-08-20T13:10:09;3.27;;;1.90;;
7029;SDS011;3556;53.500;10.176;2022-08-20T13:12:37;6.73;;;1.63;;
7029;SDS011;3556;53.500;10.176;2022-08-20T13:15:03;3.03;;;1.80;;
7029;SDS011;3556;53.500;10.176;2022-08-20T13:17:29;2.57;;;1.50;;
7029;SDS011;3556;53.500;10.176;2022-08-20T13:19:55;7.00;;;2.13;;
7029;SDS011;3556;53.500;10.176;2022-08-20T13:22:20;4.63;;;1.67;;
7029;SDS011;3556;53.500;10.176;2022-08-20T13:24:46;4.17;;;1.80;;
7029;SDS011;3556;53.500;10.176;2022-08-20T13:27:14;3.37;;;1.80;;
7029;SDS011;3556;53.500;10.176;2022-08-20T13:29:48;1.77;;;1.57;;
7029;SDS011;3556;53.500;10.176;2022-08-20T13:32:16;2.40;;;1.53;;
7029;SDS011;3556;53.500;10.176;2022-08-20T13:34:41;5.50;;;1.73;;
7029;SDS011;3556;53.500;10.176;2022-08-20T13:37:18;2.17;;;1.50;;
7029;SDS011;3556;53.500;10.176;2022-08-20T13:39:48;6.03;;;1.53;;
7029;SDS011;3556;53.500;10.176;2022-08-20T13:42:13;5.37;;;1.80;;
7029;SDS011;3556;53.500;10.176;2022-08-20T13:44:39;2.10;;;1.67;;
7029;SDS011;3556;53.500;10.176;2022-08-20T13:47:12;4.70;;;1.67;;
7029;SDS011;3556;53.500;10.176;2022-08-20T13:49:42;2.40;;;1.30;;
7029;SDS011;3556;53.500;10.176;2022-08-20T13:52:08;5.10;;;1.70;;
7029;SDS011;3556;53.500;10.176;2022-08-20T13:54:34;2.97;;;1.40;;
7029;SDS011;3556;53.500;10.176;2022-08-20T13:57:06;2.80;;;1.50;;
7029;SDS011;3556;53.500;10.176;2022-08-20T13:59:41;2.23;;;1.30;;
7029;SDS011;3556;53.500;10.176;2022-08-20T14:02:09;8.83;;;1.90;;
7029;SDS011;3556;53.500;10.176;2022-08-20T14:04:37;3.27;;;1.23;;
7029;SDS011;3556;53.500;10.176;2022-08-20T14:07:16;7.20;;;1.40;;
7029;SDS011;3556;53.500;10.176;2022-08-20T14:09:45;2.27;;;1.53;;
7029;SDS011;3556;53.500;10.176;2022-08-20T14:12:12;3.37;;;1.60;;
7029;SDS011;3556;53.500;10.176;2022-08-20T14:14:39;1.73;;;1.03;;
7029;SDS011;3556;53.500;10.176;2022-08-20T14:17:16;4.23;;;1.67;;
7029;SDS011;3556;53.500;10.176;2022-08-20T14:19:44;1.50;;;1.33;;
7029;SDS011;3556;53.500;10.176;2022-08-20T14:22:11;3.10;;;1.53;;
7029;SDS011;3556;53.500;10.176;2022-08-20T14:24:37;6.47;;;1.57;;
7029;SDS011;3556;53.500;10.176;2022-08-20T14:27:03;2.30;;;1.40;;
7029;SDS011;3556;53.500;10.176;2022-08-20T14:29:31;2.50;;;1.47;;
7029;SDS011;3556;53.500;10.176;2022-08-20T14:31:58;4.10;;;1.70;;
7029;SDS011;3556;53.500;10.176;2022-08-20T14:34:23;3.13;;;1.27;;
7029;SDS011;3556;53.500;10.176;2022-08-20T14:36:49;4.00;;;1.77;;
7029;SDS011;3556;53.500;10.176;2022-08-20T14:39:17;3.63;;;1.97;;
7029;SDS011;3556;53.500;10.176;2022-08-20T14:41:43;9.23;;;1.30;;
7029;SDS011;3556;53.500;10.176;2022-08-20T14:44:08;7.27;;;1.40;;
7029;SDS011;3556;53.500;10.176;2022-08-20T14:46:34;1.57;;;1.23;;
7029;SDS011;3556;53.500;10.176;2022-08-20T14:49:00;2.90;;;1.50;;
7029;SDS011;3556;53.500;10.176;2022-08-20T14:51:25;2.17;;;1.20;;
7029;SDS011;3556;53.500;10.176;2022-08-20T14:53:51;2.33;;;1.67;;
7029;SDS011;3556;53.500;10.176;2022-08-20T14:56:16;3.97;;;1.20;;
7029;SDS011;3556;53.500;10.176;2022-08-20T14:58:42;2.60;;;1.60;;
7029;SDS011;3556;53.500;10.176;2022-08-20T15:01:08;2.13;;;1.47;;
7029;SDS011;3556;53.500;10.176;2022-08-20T15:03:34;4.17;;;1.40;;
7029;SDS011;3556;53.500;10.176;2022-08-20T15:05:59;1.30;;;1.20;;